Arklow_rally — PBEG — position and weather

sailwx.info

Track history (hours):
 
Tides and Currents Weather Stations Pressure Air Temp Water Temp Dewpoint Dewpoint Depression Visibility Wind Speed Wind Dir Waves Ship Positions

Arklow_rally

Last reported at 2017-Oct-31 05:44 UTC. Time now 2017-Nov-24 00:26 UTC.
Position N 51°25' W 003°43'.
Warning: this ship's position is 23 days out of date.

Length 90 m; draft 3.7 m.

Type: Cargo ship. MMSI: 244037000.

Date/timePositionNaut miles runAvg speedWind from/ knotsBaromVisibWave heightAir tempDewpointWater temp
2017-Oct-31 05:44N 51°25' W 003°43'2 6.3
2017-Oct-31 05:26N 51°24' W 003°40'3 6.4
2017-Oct-31 05:00N 51°23' W 003°36'27 6.9
2017-Oct-31 01:06N 51°28' W 002°54'1 9.0
2017-Oct-31 00:58N 51°28' W 002°52'4 8.6
2017-Oct-31 00:30N 51°30' W 002°46'2 4.6
2017-Oct-31 00:00N 51°30' W 002°43'1 1.2
2017-Oct-30 23:31N 51°31' W 002°42'0 0.0
2017-Oct-30 23:00N 51°31' W 002°42'0 0.0
2017-Oct-30 22:30N 51°31' W 002°42'0 0.0
2017-Oct-30 21:57N 51°31' W 002°42'0 0.0
2017-Oct-30 21:30N 51°31' W 002°42'0 0.0
2017-Oct-30 21:00N 51°31' W 002°42'0 0.0
2017-Oct-30 20:30N 51°31' W 002°42'0 0.0
2017-Oct-30 20:00N 51°31' W 002°42'0 0.0
2017-Oct-30 19:30N 51°31' W 002°42'0 0.0
2017-Oct-30 19:00N 51°31' W 002°42'0 0.0
2017-Oct-30 18:30N 51°31' W 002°42'0 0.0
2017-Oct-30 18:00N 51°31' W 002°42'0 0.0
2017-Oct-30 17:30N 51°31' W 002°42'0 0.0
2017-Oct-30 16:51N 51°31' W 002°42'0 0.0
2017-Oct-30 16:30N 51°31' W 002°42'0 0.0
2017-Oct-30 16:00N 51°31' W 002°42'0 0.0
2017-Oct-30 15:30N 51°31' W 002°42'0 0.0
2017-Oct-30 14:54N 51°31' W 002°42'0 0.0
2017-Oct-30 14:15N 51°31' W 002°42'0 0.0
2017-Oct-30 13:24N 51°31' W 002°42'0 0.0
2017-Oct-30 12:57N 51°31' W 002°42'0 0.0
2017-Oct-30 12:30N 51°31' W 002°42'0 0.0
2017-Oct-30 11:51N 51°31' W 002°42'0 0.0
2017-Oct-30 11:30N 51°31' W 002°42'0 0.0
2017-Oct-30 11:00N 51°31' W 002°42'0 0.0
2017-Oct-30 10:27N 51°31' W 002°42'0 0.0
2017-Oct-30 09:57N 51°31' W 002°42'0 0.0
2017-Oct-30 09:24N 51°31' W 002°42'0 0.0
2017-Oct-30 09:00N 51°31' W 002°42'0 0.0
2017-Oct-30 08:29N 51°31' W 002°42'0 0.0
2017-Oct-30 07:53N 51°31' W 002°42'0 0.0
2017-Oct-30 07:29N 51°31' W 002°42'0 0.0
2017-Oct-30 06:59N 51°31' W 002°42'0 0.0
2017-Oct-30 06:29N 51°31' W 002°42'0 0.0
2017-Oct-30 05:59N 51°31' W 002°42'0 0.0
2017-Oct-30 05:29N 51°31' W 002°42'0 0.0
2017-Oct-30 04:59N 51°31' W 002°42'0 0.0
2017-Oct-30 04:29N 51°31' W 002°42'0 0.0
2017-Oct-30 03:56N 51°31' W 002°42'0 0.0
2017-Oct-30 03:29N 51°31' W 002°42'0 0.0
2017-Oct-30 02:56N 51°31' W 002°42'0 0.0
2017-Oct-30 02:26N 51°31' W 002°42'0 0.0
2017-Oct-30 01:59N 51°31' W 002°42'0 0.0
2017-Oct-30 01:29N 51°31' W 002°42'0 0.0
2017-Oct-30 01:00N 51°31' W 002°42'1 1.2
2017-Oct-30 00:30N 51°30' W 002°43'1 3.0
2017-Oct-30 00:00N 51°30' W 002°45'83 9.4
2017-Oct-29 15:10N 51°31' W 004°58'2 9.6
2017-Oct-29 14:57N 51°31' W 005°01'4 9.9
2017-Oct-29 14:31N 51°34' W 005°07'510.0
2017-Oct-29 14:01N 51°37' W 005°13'5 9.9
2017-Oct-29 13:31N 51°40' W 005°19'181 9.8
2017-Oct-28 19:00N 54°41' W 005°49'5 8.6
2017-Oct-28 18:29N 54°37' W 005°54'0 0.0
2017-Oct-28 17:56N 54°37' W 005°54'0 0.0
2017-Oct-28 17:29N 54°37' W 005°54'0 0.0
2017-Oct-28 14:07N 54°37' W 005°54'0 0.0
2017-Oct-28 13:19N 54°37' W 005°54'0 0.0
2017-Oct-28 12:58N 54°37' W 005°54'0 0.0
2017-Oct-28 12:04N 54°37' W 005°54'0 0.0
2017-Oct-28 11:43N 54°37' W 005°54'0 0.0
2017-Oct-28 11:25N 54°37' W 005°54'0 0.0
2017-Oct-28 10:43N 54°37' W 005°54'0 0.0
2017-Oct-28 09:10N 54°37' W 005°54'0 0.0
2017-Oct-28 07:16N 54°37' W 005°54'0 0.0
2017-Oct-28 06:58N 54°37' W 005°54'0 0.0
2017-Oct-28 06:28N 54°37' W 005°54'0 0.0
2017-Oct-28 05:49N 54°37' W 005°54'0 0.0
2017-Oct-28 04:10N 54°37' W 005°54'0 0.0
2017-Oct-28 03:46N 54°37' W 005°54'0 0.0
2017-Oct-28 03:21N 54°37' W 005°54'0 0.0
2017-Oct-28 03:00N 54°37' W 005°54'1 1.1
2017-Oct-28 02:30N 54°38' W 005°53'4 8.7
2017-Oct-28 02:00N 54°41' W 005°48'4 7.2
2017-Oct-28 01:30N 54°43' W 005°43'3 5.3
2017-Oct-28 01:00N 54°43' W 005°38'2 4.9
2017-Oct-28 00:30N 54°43' W 005°34'2 5.0
2017-Oct-28 00:00N 54°44' W 005°30'2 4.8
2017-Oct-27 23:30N 54°42' W 005°27'4 8.1
2017-Oct-27 23:00N 54°38' W 005°25'4 8.5
2017-Oct-27 22:30N 54°34' W 005°23'5 9.5
2017-Oct-27 22:00N 54°30' W 005°21'612.2
2017-Oct-27 21:30N 54°23' W 005°20'612.0
2017-Oct-27 21:00N 54°18' W 005°25'1012.4
2017-Oct-27 20:14N 54°11' W 005°35'412.3
2017-Oct-27 19:54N 54°07' W 005°39'  
2017-Oct-24 19:10N 46°34' W 007°56'455 9.9
2017-Oct-22 21:11N 39°07' W 009°51'2 8.6
2017-Oct-22 21:00N 39°05' W 009°51'4 8.6
2017-Oct-22 20:30N 39°01' W 009°51'4 8.5
2017-Oct-22 20:00N 38°57' W 009°51'4 8.7
2017-Oct-22 19:30N 38°53' W 009°51'4 8.5
2017-Oct-22 19:00N 38°48' W 009°51'4 8.5
2017-Oct-22 18:30N 38°44' W 009°51'4 8.5
2017-Oct-22 18:00N 38°40' W 009°50'4 8.5
2017-Oct-22 17:30N 38°36' W 009°49'4 8.3
2017-Oct-22 17:00N 38°32' W 009°48'4 8.0
2017-Oct-22 16:26N 38°27' W 009°46'  
Track history (hours):
 
Tides and Currents Weather Stations Pressure Air Temp Water Temp Dewpoint Dewpoint Depression Visibility Wind Speed Wind Dir Waves Ship Positions

Arklow_rally

Last reported at 2017-Oct-31 05:44 UTC. Time now 2017-Nov-24 00:26 UTC.
Position N 51°25' W 003°43'.
Warning: this ship's position is 23 days out of date.

Length 90 m; draft 3.7 m.

Type: Cargo ship. MMSI: 244037000.

Date/timePositionNaut miles runAvg speedWind from/ knotsBaromVisibWave heightAir tempDewpointWater temp
2017-Oct-31 05:44N 51°25' W 003°43'2 6.3
2017-Oct-31 05:26N 51°24' W 003°40'3 6.4
2017-Oct-31 05:00N 51°23' W 003°36'27 6.9
2017-Oct-31 01:06N 51°28' W 002°54'1 9.0
2017-Oct-31 00:58N 51°28' W 002°52'4 8.6
2017-Oct-31 00:30N 51°30' W 002°46'2 4.6
2017-Oct-31 00:00N 51°30' W 002°43'1 1.2
2017-Oct-30 23:31N 51°31' W 002°42'0 0.0
2017-Oct-30 23:00N 51°31' W 002°42'0 0.0
2017-Oct-30 22:30N 51°31' W 002°42'0 0.0
2017-Oct-30 21:57N 51°31' W 002°42'0 0.0
2017-Oct-30 21:30N 51°31' W 002°42'0 0.0
2017-Oct-30 21:00N 51°31' W 002°42'0 0.0
2017-Oct-30 20:30N 51°31' W 002°42'0 0.0
2017-Oct-30 20:00N 51°31' W 002°42'0 0.0
2017-Oct-30 19:30N 51°31' W 002°42'0 0.0
2017-Oct-30 19:00N 51°31' W 002°42'0 0.0
2017-Oct-30 18:30N 51°31' W 002°42'0 0.0
2017-Oct-30 18:00N 51°31' W 002°42'0 0.0
2017-Oct-30 17:30N 51°31' W 002°42'0 0.0
2017-Oct-30 16:51N 51°31' W 002°42'0 0.0
2017-Oct-30 16:30N 51°31' W 002°42'0 0.0
2017-Oct-30 16:00N 51°31' W 002°42'0 0.0
2017-Oct-30 15:30N 51°31' W 002°42'0 0.0
2017-Oct-30 14:54N 51°31' W 002°42'0 0.0
2017-Oct-30 14:15N 51°31' W 002°42'0 0.0
2017-Oct-30 13:24N 51°31' W 002°42'0 0.0
2017-Oct-30 12:57N 51°31' W 002°42'0 0.0
2017-Oct-30 12:30N 51°31' W 002°42'0 0.0
2017-Oct-30 11:51N 51°31' W 002°42'0 0.0
2017-Oct-30 11:30N 51°31' W 002°42'0 0.0
2017-Oct-30 11:00N 51°31' W 002°42'0 0.0
2017-Oct-30 10:27N 51°31' W 002°42'0 0.0
2017-Oct-30 09:57N 51°31' W 002°42'0 0.0
2017-Oct-30 09:24N 51°31' W 002°42'0 0.0
2017-Oct-30 09:00N 51°31' W 002°42'0 0.0
2017-Oct-30 08:29N 51°31' W 002°42'0 0.0
2017-Oct-30 07:53N 51°31' W 002°42'0 0.0
2017-Oct-30 07:29N 51°31' W 002°42'0 0.0
2017-Oct-30 06:59N 51°31' W 002°42'0 0.0
2017-Oct-30 06:29N 51°31' W 002°42'0 0.0
2017-Oct-30 05:59N 51°31' W 002°42'0 0.0
2017-Oct-30 05:29N 51°31' W 002°42'0 0.0
2017-Oct-30 04:59N 51°31' W 002°42'0 0.0
2017-Oct-30 04:29N 51°31' W 002°42'0 0.0
2017-Oct-30 03:56N 51°31' W 002°42'0 0.0
2017-Oct-30 03:29N 51°31' W 002°42'0 0.0
2017-Oct-30 02:56N 51°31' W 002°42'0 0.0
2017-Oct-30 02:26N 51°31' W 002°42'0 0.0
2017-Oct-30 01:59N 51°31' W 002°42'0 0.0
2017-Oct-30 01:29N 51°31' W 002°42'0 0.0
2017-Oct-30 01:00N 51°31' W 002°42'1 1.2
2017-Oct-30 00:30N 51°30' W 002°43'1 3.0
2017-Oct-30 00:00N 51°30' W 002°45'83 9.4
2017-Oct-29 15:10N 51°31' W 004°58'2 9.6
2017-Oct-29 14:57N 51°31' W 005°01'4 9.9
2017-Oct-29 14:31N 51°34' W 005°07'510.0
2017-Oct-29 14:01N 51°37' W 005°13'5 9.9
2017-Oct-29 13:31N 51°40' W 005°19'181 9.8
2017-Oct-28 19:00N 54°41' W 005°49'5 8.6
2017-Oct-28 18:29N 54°37' W 005°54'0 0.0
2017-Oct-28 17:56N 54°37' W 005°54'0 0.0
2017-Oct-28 17:29N 54°37' W 005°54'0 0.0
2017-Oct-28 14:07N 54°37' W 005°54'0 0.0
2017-Oct-28 13:19N 54°37' W 005°54'0 0.0
2017-Oct-28 12:58N 54°37' W 005°54'0 0.0
2017-Oct-28 12:04N 54°37' W 005°54'0 0.0
2017-Oct-28 11:43N 54°37' W 005°54'0 0.0
2017-Oct-28 11:25N 54°37' W 005°54'0 0.0
2017-Oct-28 10:43N 54°37' W 005°54'0 0.0
2017-Oct-28 09:10N 54°37' W 005°54'0 0.0
2017-Oct-28 07:16N 54°37' W 005°54'0 0.0
2017-Oct-28 06:58N 54°37' W 005°54'0 0.0
2017-Oct-28 06:28N 54°37' W 005°54'0 0.0
2017-Oct-28 05:49N 54°37' W 005°54'0 0.0
2017-Oct-28 04:10N 54°37' W 005°54'0 0.0
2017-Oct-28 03:46N 54°37' W 005°54'0 0.0
2017-Oct-28 03:21N 54°37' W 005°54'0 0.0
2017-Oct-28 03:00N 54°37' W 005°54'1 1.1
2017-Oct-28 02:30N 54°38' W 005°53'4 8.7
2017-Oct-28 02:00N 54°41' W 005°48'4 7.2
2017-Oct-28 01:30N 54°43' W 005°43'3 5.3
2017-Oct-28 01:00N 54°43' W 005°38'2 4.9
2017-Oct-28 00:30N 54°43' W 005°34'2 5.0
2017-Oct-28 00:00N 54°44' W 005°30'2 4.8
2017-Oct-27 23:30N 54°42' W 005°27'4 8.1
2017-Oct-27 23:00N 54°38' W 005°25'4 8.5
2017-Oct-27 22:30N 54°34' W 005°23'5 9.5
2017-Oct-27 22:00N 54°30' W 005°21'612.2
2017-Oct-27 21:30N 54°23' W 005°20'612.0
2017-Oct-27 21:00N 54°18' W 005°25'1012.4
2017-Oct-27 20:14N 54°11' W 005°35'412.3
2017-Oct-27 19:54N 54°07' W 005°39'  
2017-Oct-24 19:10N 46°34' W 007°56'455 9.9
2017-Oct-22 21:11N 39°07' W 009°51'2 8.6
2017-Oct-22 21:00N 39°05' W 009°51'4 8.6
2017-Oct-22 20:30N 39°01' W 009°51'4 8.5
2017-Oct-22 20:00N 38°57' W 009°51'4 8.7
2017-Oct-22 19:30N 38°53' W 009°51'4 8.5
2017-Oct-22 19:00N 38°48' W 009°51'4 8.5
2017-Oct-22 18:30N 38°44' W 009°51'4 8.5
2017-Oct-22 18:00N 38°40' W 009°50'4 8.5
2017-Oct-22 17:30N 38°36' W 009°49'4 8.3
2017-Oct-22 17:00N 38°32' W 009°48'4 8.0
2017-Oct-22 16:26N 38°27' W 009°46'  

Dump ship's entire track history